Latest Weather Observations for Wattamolla

IDN60901

Issued at 9:51 pm EST Tuesday 24 May 2022 (issued every 10 minutes, with the page automatically refreshed every 10 minutes)

About weather observations | Map of Sydney area stations | Latest observations for Sydney area | Other Formats
Station Details ID: 066208 Name: WATTAMOLLA AWS Lat: -34.14 Lon: 151.12 Height: 44.0 m
Data from the previous 72 hours. | See also: Recent months at Wattamolla
Date/Time
EST
Temp
°C
App
Temp
°C
Dew
Point
°C
Rel
Hum
%
Delta-T
°C
Wind Press
QNH
hPa
Press
MSL
hPa
Rain since
9am
mm
Dir  Spd
km/h
Gust
km/h
Spd
kts
Gust
kts
24/09:30pm - - - - - WSW 2 9 1 5 - - -
24/09:00pm - - - - - W 9 11 5 6 - - -
24/08:30pm - - - - - WSW 9 15 5 8 - - -
24/08:00pm - - - - - S 13 20 7 11 - - -
24/07:30pm - - - - - NW 11 13 6 7 - - -
24/07:00pm - - - - - NNW 7 9 4 5 - - -
24/06:30pm - - - - - NW 9 11 5 6 - - -
24/06:00pm - - - - - NNW 11 13 6 7 - - -
24/05:30pm - - - - - N 11 17 6 9 - - -
24/05:00pm - - - - - N 13 19 7 10 - - -
24/04:30pm - - - - - NE 9 15 5 8 - - -
24/04:00pm - - - - - SSE 19 28 10 15 - - -
24/03:30pm - - - - - SSE 17 26 9 14 - - -
24/03:00pm - - - - - SSE 20 28 11 15 - - -
24/02:30pm - - - - - SSE 24 30 13 16 - - -
24/02:00pm - - - - - SSE 20 30 11 16 - - -
24/01:30pm - - - - - SSE 19 30 10 16 - - -
24/01:00pm - - - - - W 9 13 5 7 - - -
24/12:30pm - - - - - NW 6 13 3 7 - - -
24/12:00pm - - - - - NW 11 13 6 7 - - -
24/11:30am - - - - - SSE 17 35 9 19 - - -
24/11:00am - - - - - SSE 19 32 10 17 - - -
24/10:30am - - - - - SSE 33 48 18 26 - - -
24/10:00am - - - - - S 33 46 18 25 - - -
24/09:58am - - - - - S 30 46 16 25 - - -
24/09:30am - - - - - SSE 15 26 8 14 - - -
24/09:00am - - - - - SSE 17 26 9 14 - - -
24/08:30am - - - - - SE 17 28 9 15 - - -
24/08:00am - - - - - SSE 24 33 13 18 - - -
24/07:30am - - - - - SSE 24 37 13 20 - - -
24/07:00am - - - - - SSE 26 35 14 19 - - -
24/06:30am - - - - - SSE 20 33 11 18 - - -
24/06:00am - - - - - SSE 24 35 13 19 - - -
24/05:30am - - - - - S 24 35 13 19 - - -
24/05:00am - - - - - S 24 33 13 18 - - -
24/04:30am - - - - - NW 11 20 6 11 - - -
24/04:00am - - - - - WNW 6 13 3 7 - - -
24/03:30am - - - - - SSE 24 33 13 18 - - -
24/03:00am - - - - - S 30 37 16 20 - - -
24/02:30am - - - - - S 30 39 16 21 - - -
24/02:00am - - - - - S 35 39 19 21 - - -
24/01:30am - - - - - S 33 39 18 21 - - -
24/01:00am - - - - - S 35 43 19 23 - - -
24/12:30am - - - - - S 28 39 15 21 - - -
24/12:00am - - - - - SSE 17 26 9 14 - - -
 
Date/Time
EST
Temp
°C
App
Temp
°C
Dew
Point
°C
Rel
Hum
%
Delta-T
°C
Wind Press
QNH
hPa
Press
MSL
hPa
Rain since
9am
mm
Dir  Spd
km/h
Gust
km/h
Spd
kts
Gust
kts
23/11:30pm - - - - - S 15 30 8 16 - - -
23/11:00pm - - - - - SSE 28 35 15 19 - - -
23/10:30pm - - - - - SSE 20 32 11 17 - - -
23/10:00pm - - - - - SSE 20 28 11 15 - - -
23/09:30pm - - - - - SSE 20 32 11 17 - - -
23/09:00pm - - - - - SE 20 26 11 14 - - -
23/08:30pm - - - - - SSE 19 26 10 14 - - -
23/08:00pm - - - - - SSE 17 26 9 14 - - -
23/07:30pm - - - - - SSE 17 26 9 14 - - -
23/07:00pm - - - - - SSE 13 26 7 14 - - -
23/06:30pm - - - - - WSW 13 15 7 8 - - -
23/06:00pm - - - - - SSE 7 13 4 7 - - -
23/05:30pm - - - - - SSE 9 15 5 8 - - -
23/05:00pm - - - - - SSE 15 24 8 13 - - -
23/04:30pm - - - - - SSW 6 11 3 6 - - -
23/04:00pm - - - - - WSW 9 11 5 6 - - -
23/03:30pm - - - - - S 17 24 9 13 - - -
23/03:00pm - - - - - SW 11 17 6 9 - - -
23/02:30pm - - - - - WSW 6 11 3 6 - - -
23/02:00pm - - - - - W 15 24 8 13 - - -
23/01:30pm - - - - - WSW 7 13 4 7 - - -
23/01:00pm - - - - - SW 4 9 2 5 - - -
23/12:30pm - - - - - W 6 11 3 6 - - -
23/12:00pm - - - - - NNW 9 19 5 10 - - -
23/11:30am - - - - - NNW 17 28 9 15 - - -
23/11:00am - - - - - S 22 39 12 21 - - -
23/10:30am - - - - - S 24 41 13 22 - - -
23/10:00am - - - - - S 30 48 16 26 - - -
23/09:45am - - - - - S 28 46 15 25 - - -
23/09:30am - - - - - S 24 35 13 19 - - -
23/09:00am - - - - - S 20 32 11 17 - - -
23/08:30am - - - - - S 33 41 18 22 - - -
23/08:00am - - - - - S 30 41 16 22 - - -
23/07:30am - - - - - S 39 48 21 26 - - -
23/07:13am - - - - - S 30 50 16 27 - - -
23/07:08am - - - - - SSW 20 41 11 22 - - -
23/07:00am - - - - - NW 9 20 5 11 - - -
23/06:30am - - - - - WSW 11 20 6 11 - - -
23/06:00am - - - - - N 11 19 6 10 - - -
23/05:30am - - - - - W 20 30 11 16 - - -
23/05:00am - - - - - S 19 32 10 17 - - -
23/04:35am - - - - - S 28 46 15 25 - - -
23/04:30am - - - - - S 32 46 17 25 - - -
23/04:00am - - - - - S 39 48 21 26 - - -
23/03:41am - - - - - S 32 50 17 27 - - -
23/03:30am - - - - - S 37 50 20 27 - - -
23/03:00am - - - - - S 41 52 22 28 - - -
23/02:34am - - - - - S 30 52 16 28 - - -
23/02:30am - - - - - S 28 41 15 22 - - -
23/02:19am - - - - - S 28 48 15 26 - - -
23/02:00am - - - - - S 20 32 11 17 - - -
23/01:33am - - - - - S 30 48 16 26 - - -
23/01:30am - - - - - S 33 48 18 26 - - -
23/01:00am - - - - - S 39 46 21 25 - - -
23/12:30am - - - - - S 26 37 14 20 - - -
23/12:00am - - - - - SSE 19 32 10 17 - - -
 
Date/Time
EST
Temp
°C
App
Temp
°C
Dew
Point
°C
Rel
Hum
%
Delta-T
°C
Wind Press
QNH
hPa
Press
MSL
hPa
Rain since
9am
mm
Dir  Spd
km/h
Gust
km/h
Spd
kts
Gust
kts
22/11:30pm - - - - - SW 13 19 7 10 - - -
22/11:00pm - - - - - S 19 30 10 16 - - -
22/10:30pm - - - - - SSW 15 30 8 16 - - -
22/10:00pm - - - - - WSW 17 19 9 10 - - -
22/09:30pm - - - - - SW 19 30 10 16 - - -
22/09:00pm - - - - - WSW 15 28 8 15 - - -
22/08:30pm - - - - - S 22 33 12 18 - - -
22/08:00pm - - - - - S 22 33 12 18 - - -
22/07:30pm - - - - - SSW 20 30 11 16 - - -
22/07:00pm - - - - - S 24 35 13 19 - - -
22/06:37pm - - - - - S 39 57 21 31 - - -
22/06:30pm - - - - - S 39 57 21 31 - - -
22/06:00pm - - - - - S 46 54 25 29 - - -
22/05:33pm - - - - - S 30 48 16 26 - - -
22/05:30pm - - - - - S 32 48 17 26 - - -
22/05:28pm - - - - - S 30 48 16 26 - - -
22/05:00pm - - - - - SSW 19 26 10 14 - - -
22/04:30pm - - - - - S 48 57 26 31 - - -
22/04:00pm - - - - - S 41 59 22 32 - - -
22/03:52pm - - - - - SSE 24 50 13 27 - - -
22/03:30pm - - - - - SSE 17 24 9 13 - - -
22/03:00pm - - - - - S 35 43 19 23 - - -
22/02:30pm - - - - - SSE 41 50 22 27 - - -
22/02:08pm - - - - - SSE 30 50 16 27 - - -
22/02:00pm - - - - - SSE 24 35 13 19 - - -
22/01:30pm - - - - - S 41 52 22 28 - - -
22/01:00pm - - - - - S 39 48 21 26 - - -
22/12:30pm - - - - - S 39 46 21 25 - - -
22/12:00pm - - - - - SSE 43 52 23 28 - - -
22/11:30am - - - - - S 43 50 23 27 - - -
22/11:00am - - - - - SSE 43 54 23 29 - - -
22/10:30am - - - - - SSE 39 48 21 26 - - -
22/10:00am - - - - - S 37 46 20 25 - - -
22/09:30am - - - - - S 39 46 21 25 - - -
22/09:00am - - - - - S 41 46 22 25 - - -
22/08:30am - - - - - S 46 52 25 28 - - -
22/08:00am - - - - - S 39 50 21 27 - - -
22/07:30am - - - - - S 39 50 21 27 - - -
22/07:00am - - - - - S 43 52 23 28 - - -
22/06:30am - - - - - SSE 39 50 21 27 - - -
22/06:16am - - - - - SSE 32 50 17 27 - - -
22/06:00am - - - - - SSE 26 37 14 20 - - -
22/05:30am - - - - - SSE 28 35 15 19 - - -
22/05:00am - - - - - SSE 24 33 13 18 - - -
22/04:30am - - - - - SSE 24 33 13 18 - - -
22/04:00am - - - - - SSE 28 37 15 20 - - -
22/03:30am - - - - - SSE 28 37 15 20 - - -
22/03:00am - - - - - SSE 26 33 14 18 - - -
22/02:30am - - - - - SSE 24 33 13 18 - - -
22/02:00am - - - - - SSE 24 33 13 18 - - -
22/01:30am - - - - - SE 32 41 17 22 - - -
22/01:00am - - - - - SE 32 39 17 21 - - -
22/12:30am - - - - - SE 32 37 17 20 - - -
22/12:00am - - - - - SE 32 37 17 20 - - -
 
Date/Time
EST
Temp
°C
App
Temp
°C
Dew
Point
°C
Rel
Hum
%
Delta-T
°C
Wind Press
QNH
hPa
Press
MSL
hPa
Rain since
9am
mm
Dir  Spd
km/h
Gust
km/h
Spd
kts
Gust
kts
21/11:30pm - - - - - SE 32 41 17 22 - - -
21/11:00pm - - - - - SE 35 41 19 22 - - -
21/10:30pm - - - - - SE 33 39 18 21 - - -
21/10:00pm - - - - - SE 32 39 17 21 - - -

Latest Capital City Observations: Canberra | Sydney | Melbourne | Brisbane | Adelaide | Perth | Hobart | Darwin

Other formats

Comma delimited format used in spreadsheet applications
http://www.bom.gov.au/fwo/IDN60901/IDN60901.95752.axf

JavaScript Object Notation format (JSON) in row-major order
http://www.bom.gov.au/fwo/IDN60901/IDN60901.95752.json

Data quality

Most of these data are generated automatically and are frequently updated. Quality checks on data are not normally performed. It is possible for incorrect values to appear. Refer to information at About Latest Weather Observations and please check the disclaimer before using these data.